Date,TemperatureHighF,TemperatureAvgF,TemperatureLowF,DewpointHighF,DewpointAvgF,DewpointLowF,HumidityHigh,HumidityAvg,HumidityLow,PressureMaxIn,PressureMinIn,WindSpeedMaxMPH,WindSpeedAvgMPH,GustSpeedMaxMPH,PrecipitationSumIn
2013-1-1,38.8,31.5,20.1,26.1,18.4,6.6,71,58,43,29.82,29.61,12,5,0,0.00
2013-1-2,30.6,18.9,5.0,15.2,8.5,1.9,94,65,48,30.01,29.77,11,3,0,0.00
2013-1-3,26.2,13.7,1.2,11.0,0.6,-5.7,86,58,27,30.04,29.91,7,2,0,0.00
2013-1-4,39.6,24.5,6.8,23.9,16.8,5.0,98,75,50,29.90,29.71,9,2,0,0.00
2013-1-5,43.0,29.3,17.2,24.2,20.6,16.3,98,73,42,30.17,29.76,13,2,0,0.00
2013-1-6,44.6,30.4,18.9,29.3,25.8,18.2,99,84,53,30.13,29.83,9,2,0,0.00
2013-1-7,43.3,28.9,15.8,30.2,23.1,15.1,99,81,44,30.31,29.87,7,1,0,0.00
2013-1-8,46.6,31.7,14.9,29.7,25.3,14.0,99,80,49,30.28,30.18,16,3,0,0.00
2013-1-9,45.9,33.8,17.2,36.4,28.2,16.7,99,82,53,30.31,29.91,12,2,0,0.00
2013-1-10,48.0,39.4,25.7,28.4,24.9,23.0,92,57,39,30.45,29.96,19,5,0,0.05
2013-1-11,40.1,31.6,21.6,35.7,27.9,21.2,99,88,61,30.45,30.12,3,0,0,0.14
2013-1-12,43.7,39.1,35.1,43.4,38.8,34.8,99,99,99,30.13,30.02,3,0,0,0.05
2013-1-13,53.1,46.2,38.5,52.0,45.7,38.2,99,98,94,30.07,29.90,8,2,0,0.01
2013-1-14,62.2,51.2,40.6,53.8,43.6,29.0,99,78,45,30.15,29.78,13,4,0,0.00
2013-1-15,43.2,36.1,29.1,32.3,27.3,25.4,92,71,52,30.22,30.12,7,1,0,0.00
2013-1-16,33.8,31.9,29.5,33.0,30.8,25.9,99,96,78,30.15,29.71,0,0,0,0.00
2013-1-17,42.8,34.5,28.0,33.7,28.0,16.6,99,79,54,29.98,29.74,9,3,0,0.53
2013-1-18,29.1,22.1,13.5,16.6,4.5,-1.4,71,47,30,30.36,29.95,16,4,0,0.01
2013-1-19,47.5,35.9,19.8,32.6,23.0,6.9,76,60,43,30.30,29.80,17,7,0,0.00
2013-1-20,53.8,41.7,27.9,33.0,26.4,10.1,75,56,35,29.83,29.44,17,7,0,0.09
2013-1-21,28.2,26.2,20.8,20.2,9.6,5.6,87,50,40,30.01,29.81,9,4,0,0.00
2013-1-22,24.4,17.5,10.0,21.2,4.4,-2.2,99,58,34,29.98,29.65,14,4,0,0.00
2013-1-23,16.9,10.1,4.6,2.1,-5.2,-8.6,75,50,34,30.06,29.97,11,5,0,0.01
2013-1-24,21.9,10.4,-1.1,-4.6,-7.1,-9.1,73,46,29,30.13,29.96,14,5,0,0.00
2013-1-25,24.3,15.6,5.9,14.0,-3.3,-8.9,91,45,24,30.22,29.97,8,3,0,0.00
2013-1-26,26.4,15.7,4.5,14.0,3.4,-5.6,97,62,34,30.15,29.90,8,3,0,0.00
2013-1-27,32.0,19.2,10.8,6.8,3.0,0.6,76,51,29,30.37,30.15,11,4,0,0.00
2013-1-28,32.4,22.7,11.8,27.1,15.7,4.6,99,77,35,30.36,29.91,6,1,0,0.00
2013-1-29,35.8,30.7,25.5,32.5,29.4,25.3,99,95,82,30.09,29.91,3,1,0,0.15
2013-1-30,60.8,48.8,32.4,58.6,47.9,32.2,99,97,89,30.06,29.35,20,6,0,0.11
2013-1-31,61.2,48.0,30.6,60.1,38.7,15.3,99,73,40,29.50,28.86,29,9,0,0.88
2013-2-1,33.8,28.8,23.4,19.3,11.0,6.2,63,47,34,29.95,29.50,14,6,0,0.00
2013-2-2,31.5,25.2,12.9,13.3,8.5,3.4,69,49,39,30.18,29.95,12,4,0,0.00
2013-2-3,29.5,24.0,16.3,23.1,20.6,14.2,99,87,63,29.96,29.64,6,2,0,0.00
2013-2-4,29.8,22.8,15.8,21.4,11.9,6.3,99,65,38,29.86,29.63,14,4,0,0.00
2013-2-5,28.8,24.1,20.1,23.1,15.5,9.1,96,70,55,29.94,29.83,5,1,0,0.00
2013-2-6,39.9,29.7,22.3,26.9,19.2,5.5,99,68,38,30.21,29.83,14,3,0,0.03
2013-2-7,34.7,23.9,12.0,12.3,6.4,3.3,86,49,29,30.44,30.20,6,2,0,0.00
2013-2-8,32.5,27.1,17.6,32.3,24.9,12.1,99,92,68,30.39,29.47,16,5,0,0.00
2013-2-9,27.1,19.3,12.4,22.7,17.4,8.7,99,92,80,30.10,29.43,20,6,0,0.00
2013-2-10,39.6,18.9,-2.0,16.6,8.0,-3.7,96,68,23,30.31,30.11,10,2,0,0.14
2013-2-11,44.8,31.7,7.5,44.5,30.7,6.1,99,96,83,30.27,29.50,9,2,0,0.27
2013-2-12,43.7,37.7,26.8,41.6,29.4,24.5,99,73,53,29.78,29.51,13,4,0,0.00
2013-2-13,44.6,31.4,18.7,27.8,24.4,18.5,99,78,48,29.78,29.59,8,1,0,0.00
2013-2-14,47.5,34.0,23.7,28.1,23.4,20.4,99,69,36,29.90,29.62,6,2,0,0.00
2013-2-15,51.8,35.4,20.8,34.6,29.7,20.6,99,83,51,29.92,29.80,11,3,0,0.00
2013-2-16,40.3,33.6,25.7,33.9,28.5,19.4,99,82,60,29.85,29.59,10,2,0,0.03
2013-2-17,28.8,21.6,16.2,23.8,11.6,1.2,96,68,39,29.61,29.29,21,8,0,0.01
2013-2-18,33.1,21.8,13.8,3.3,1.1,-1.6,56,41,25,30.08,29.61,18,6,0,0.01
2013-2-19,48.4,33.4,13.6,42.5,25.3,3.3,99,74,47,30.09,29.48,11,2,0,0.34
2013-2-20,40.1,32.1,24.6,39.8,19.7,10.6,99,62,38,29.69,29.44,19,7,0,0.01
2013-2-21,37.2,28.0,23.4,16.4,14.3,11.8,72,57,40,30.09,29.68,14,6,0,0.00
2013-2-22,45.9,31.2,19.0,25.6,21.4,15.9,94,69,41,30.30,30.11,9,2,0,0.00
2013-2-23,40.1,33.1,24.6,32.7,29.4,23.1,99,87,68,30.24,29.80,6,1,0,0.09
2013-2-24,34.9,33.1,30.9,34.6,32.9,30.7,99,99,99,29.79,29.58,5,2,0,0.73
2013-2-25,41.5,34.2,26.4,34.6,31.6,26.2,99,91,68,30.15,29.80,5,1,0,0.45
2013-2-26,48.2,38.0,28.0,37.8,29.9,25.7,99,75,47,30.24,30.05,8,2,0,0.01
2013-2-27,42.3,38.8,35.6,42.0,38.3,31.7,99,98,84,30.05,29.47,10,5,0,1.70
2013-2-28,48.9,37.1,29.3,40.6,35.2,29.1,99,93,70,29.54,29.42,4,1,0,0.00
2013-3-1,44.1,36.8,28.6,36.4,30.2,27.6,99,78,58,29.58,29.42,7,2,0,0.00
2013-3-2,45.1,37.1,30.0,31.7,28.2,26.2,86,70,54,29.58,29.51,9,2,0,0.00
2013-3-3,43.7,35.5,31.5,32.2,28.7,25.3,98,77,60,29.54,29.45,8,3,0,0.00
2013-3-4,41.7,34.4,28.2,27.8,24.5,20.9,85,68,52,29.64,29.48,17,6,0,0.00
2013-3-5,48.6,36.4,28.0,32.7,27.9,23.2,99,73,49,29.96,29.65,9,3,0,0.00
2013-3-6,40.6,36.2,31.5,37.3,34.2,31.3,99,93,72,29.98,29.93,16,7,0,0.16
2013-3-7,36.0,32.5,30.2,33.9,31.5,30.0,99,96,85,29.94,29.88,12,4,0,0.12
2013-3-8,34.0,31.2,29.3,33.1,30.9,29.1,99,99,95,30.04,29.84,5,0,0,0.01
2013-3-9,47.8,32.2,21.0,33.2,27.7,20.8,99,85,50,30.26,30.04,5,1,0,1.50
2013-3-10,48.6,32.5,19.2,35.6,28.4,19.0,99,86,56,30.32,30.22,7,1,0,0.01
2013-3-11,54.0,41.9,33.4,41.7,37.3,32.4,99,85,58,30.24,30.06,11,4,0,0.00
2013-3-12,54.7,49.2,40.6,54.0,48.5,40.3,99,98,88,30.07,29.62,15,5,0,0.47
2013-3-13,52.5,42.9,26.4,50.4,32.3,22.3,99,70,35,29.69,29.60,13,4,0,0.01
2013-3-14,35.4,29.5,22.3,26.8,16.2,6.3,99,59,40,29.75,29.61,14,5,0,0.02
2013-3-15,41.2,30.4,19.4,28.8,15.0,6.8,86,55,27,29.80,29.54,12,5,0,0.00
2013-3-16,44.2,33.8,24.4,28.6,17.3,9.6,93,54,28,29.77,29.58,8,2,0,0.00
2013-3-17,40.5,29.3,19.6,18.9,12.7,4.3,89,54,24,30.22,29.77,17,3,0,0.00
2013-3-18,41.4,28.0,13.3,27.8,10.3,1.5,96,50,25,30.38,30.14,6,2,0,0.00
2013-3-19,36.9,32.1,28.4,36.6,31.9,27.1,99,99,92,30.13,29.49,10,4,0,0.72
2013-3-20,40.5,30.7,21.6,28.6,21.7,17.8,99,72,43,29.71,29.60,14,4,0,0.19
2013-3-21,38.7,29.0,19.4,29.2,24.0,17.3,99,84,48,29.73,29.51,5,1,0,0.01
2013-3-22,41.4,33.5,25.7,26.5,20.0,16.5,98,58,39,29.65,29.51,9,4,0,0.00
2013-3-23,43.7,35.6,27.1,24.8,20.9,19.0,82,56,37,29.70,29.55,18,6,0,0.00
2013-3-24,52.5,38.3,30.0,27.5,23.9,19.7,85,58,35,29.73,29.61,9,3,0,0.00
2013-3-25,46.9,36.6,27.1,34.0,29.9,26.2,99,78,49,29.67,29.39,14,4,0,0.00
2013-3-26,53.2,40.5,33.6,31.9,26.7,21.6,85,60,33,29.68,29.42,8,3,0,0.00
2013-3-27,56.3,41.5,22.1,31.4,25.2,19.9,96,56,32,29.77,29.64,11,3,0,0.00
2013-3-28,53.4,42.4,35.6,35.9,33.8,30.4,97,73,46,29.92,29.77,7,2,0,0.00
2013-3-29,60.4,45.3,30.6,36.0,32.3,28.1,99,65,34,29.96,29.87,8,2,0,0.00
2013-3-30,61.3,46.2,29.3,33.6,26.1,17.5,86,51,20,30.01,29.92,9,3,0,0.00
2013-3-31,60.3,44.0,22.5,43.8,29.0,22.3,99,64,24,30.04,29.63,17,4,0,0.02
2013-4-1,62.8,46.5,34.7,46.1,37.9,14.1,99,75,40,29.70,29.40,14,5,0,0.21
2013-4-2,41.9,34.3,25.3,20.5,15.1,11.6,68,46,30,29.86,29.71,17,6,0,0.00
2013-4-3,48.0,36.6,29.5,18.4,15.3,12.1,58,43,26,30.08,29.85,20,7,0,0.01
2013-4-4,58.3,41.3,25.2,28.1,18.5,11.2,71,43,19,30.23,29.97,14,5,0,0.00
2013-4-5,64.0,45.8,36.9,32.6,28.1,21.7,76,54,21,29.97,29.53,12,5,0,0.00
2013-4-6,50.5,37.9,23.9,26.7,13.8,4.1,75,41,16,30.24,29.79,10,4,0,0.00
2013-4-7,55.2,41.1,21.2,42.0,29.1,18.2,97,66,33,30.25,29.92,22,6,0,0.00
2013-4-8,70.9,53.8,39.0,44.7,41.3,36.1,99,68,29,29.99,29.87,7,3,0,0.00
2013-4-9,73.8,57.5,46.8,55.0,45.8,40.8,99,69,36,29.99,29.75,12,4,0,0.01
2013-4-10,140.9,55.0,22.5,99.9,49.9,22.3,99,81,52,29.91,29.75,7,2,0,0.13
2013-4-11,56.8,48.3,39.4,48.0,43.1,29.9,99,85,49,30.05,29.71,7,2,0,0.07
2013-4-12,40.8,38.5,37.2,38.5,37.1,32.0,99,95,72,30.06,29.67,10,4,0,0.58
2013-4-13,55.0,44.5,35.6,41.3,37.3,35.3,99,79,49,29.82,29.64,9,2,0,0.08
2013-4-14,54.0,43.5,32.4,41.6,33.5,27.4,99,71,41,30.13,29.82,14,3,0,0.00
2013-4-15,61.0,44.2,26.6,38.4,33.0,26.4,99,69,37,30.31,30.13,9,2,0,0.00
2013-4-16,66.4,50.5,30.6,52.3,42.9,30.4,99,77,50,30.32,29.97,17,6,0,0.00
2013-4-17,72.1,59.1,41.5,54.1,40.6,30.1,92,55,25,30.23,29.96,8,3,0,0.00
2013-4-18,64.2,50.2,32.2,47.4,36.4,28.9,99,65,34,30.33,30.06,14,5,0,0.00
2013-4-19,73.9,62.9,51.8,64.5,59.5,48.1,99,90,68,30.05,29.54,18,7,0,0.01
2013-4-20,65.1,54.2,43.9,63.9,42.9,27.0,99,69,38,30.12,29.49,14,5,0,0.73
2013-4-21,59.5,44.1,32.7,32.2,25.1,21.5,94,50,25,30.59,30.13,9,3,0,0.00
2013-4-22,57.4,42.3,27.0,37.8,31.4,26.8,99,70,34,30.65,30.50,12,4,0,0.00
2013-4-23,42.4,40.5,35.4,42.1,39.3,31.9,99,95,79,30.50,30.02,10,4,0,0.08
2013-4-24,76.1,55.7,40.8,54.1,45.7,39.7,99,75,27,30.01,29.68,14,5,0,0.01
2013-4-25,67.6,55.0,37.4,53.7,39.0,26.6,99,61,26,30.17,29.73,9,4,0,0.03
2013-4-26,66.7,48.9,32.2,42.1,37.4,31.3,99,70,34,30.34,30.18,11,3,0,0.00
2013-4-27,71.6,50.6,31.5,45.5,37.1,31.3,99,66,28,30.34,30.19,9,2,0,0.00
2013-4-28,73.4,52.7,32.0,46.5,35.5,30.2,99,59,27,30.26,30.12,12,3,0,0.00
2013-4-29,69.1,55.4,41.0,49.2,38.5,29.4,99,59,27,30.20,30.10,12,3,0,0.00
2013-4-30,77.0,56.5,36.3,41.5,31.9,20.9,96,48,16,30.27,30.16,9,2,0,0.00
2013-5-1,75.9,55.9,31.1,44.3,35.7,30.9,99,55,24,30.38,30.27,9,2,0,0.00
2013-5-10,83.5,74.8,64.6,61.2,56.9,54.9,74,55,41,29.81,29.76,6,3,0,0.00
2013-5-11,71.2,63.3,57.4,64.1,60.6,55.4,99,91,75,29.80,29.58,14,4,0,0.07
2013-5-12,73.8,61.6,47.5,61.6,52.9,33.5,99,76,41,29.72,29.45,11,3,0,0.06
2013-5-13,61.3,48.5,32.4,37.3,32.9,29.2,99,59,30,29.93,29.72,11,3,0,0.00
2013-5-14,62.6,49.8,34.9,38.2,33.8,30.2,97,58,31,29.96,29.87,12,3,0,0.00
2013-5-15,66.4,50.3,30.6,53.6,41.2,29.9,99,76,36,29.97,29.57,13,4,0,0.02
2013-5-16,83.7,66.7,46.9,53.6,45.7,38.8,99,55,22,29.68,29.50,15,4,0,0.00
2013-5-17,74.1,58.6,44.8,49.6,45.0,39.9,98,65,33,30.11,29.68,11,2,0,0.00
2013-5-18,74.5,58.7,38.3,52.6,44.9,38.0,99,66,31,30.21,30.11,8,2,0,0.00
2013-5-19,71.6,57.5,42.3,55.7,51.1,42.0,99,82,51,30.26,30.11,9,2,0,0.10
2013-5-20,86.4,69.3,55.6,70.2,63.3,55.3,99,84,55,30.10,29.78,7,3,0,0.02
2013-5-21,90.5,66.1,51.8,73.5,61.4,51.5,99,87,54,29.88,29.72,10,3,0,0.43
2013-5-22,76.5,60.6,50.5,69.5,58.2,50.2,99,93,78,29.95,29.75,6,2,0,0.09
2013-5-23,75.9,66.4,55.6,71.2,64.7,55.3,99,94,83,29.81,29.67,13,4,0,0.21
2013-5-24,72.3,63.3,48.7,69.2,62.5,48.4,99,97,87,29.70,29.53,8,3,0,0.57
2013-5-25,53.1,47.8,40.8,52.5,47.4,40.5,99,99,96,29.69,29.60,10,3,0,0.47
2013-5-26,55.0,44.6,39.2,44.1,41.2,38.9,99,89,65,29.76,29.63,18,5,0,0.04
2013-6-17,86.2,72.7,59.5,66.8,59.3,-99.9,99,70,43,29.79,29.66,9,-15,0,0.93
2013-6-18,80.2,64.2,57.9,69.6,62.0,57.6,99,93,68,29.83,29.76,7,2,0,1.33
2013-6-19,79.9,65.5,53.2,61.9,55.8,50.5,99,75,38,30.04,29.77,10,2,0,0.04
2013-6-20,83.5,66.9,47.5,60.2,53.2,47.2,99,67,33,30.16,30.05,9,2,0,0.00
2013-6-21,87.1,70.8,55.0,68.4,61.4,53.3,95,74,49,30.16,30.09,8,3,0,0.00
2013-6-22,84.9,72.5,61.0,66.2,61.3,56.7,90,69,47,30.14,30.03,9,3,0,0.00
2013-6-23,90.0,76.3,63.7,75.8,67.1,58.4,88,74,58,30.08,29.89,10,4,0,0.00
2013-6-24,93.9,81.1,68.4,75.8,72.1,66.4,99,76,52,29.91,29.75,14,3,0,0.05
2013-6-25,93.0,78.8,66.7,74.0,70.2,66.4,99,77,49,29.81,29.61,11,3,0,0.00
2013-6-26,89.4,77.4,67.6,74.8,70.9,66.7,99,82,56,29.72,29.61,7,2,0,0.00
2013-6-27,72.7,66.8,63.9,69.5,65.7,63.1,99,97,89,29.74,29.62,5,2,0,0.00
2013-6-28,83.7,71.8,63.0,76.9,69.4,62.7,99,93,75,29.62,29.36,12,4,0,0.40
2013-6-29,83.5,75.2,70.2,73.9,70.8,68.6,99,87,69,29.60,29.37,10,4,0,0.00
2013-6-30,86.2,76.4,69.8,77.3,72.3,68.6,97,88,73,29.81,29.59,12,4,0,0.00
2013-7-1,85.3,75.4,71.1,78.7,73.5,70.8,99,94,79,29.96,29.81,11,3,0,0.02
2013-7-2,85.5,76.6,67.8,77.0,73.2,65.9,98,90,75,30.07,29.95,9,4,0,0.00
2013-7-3,89.4,77.1,64.0,78.0,72.2,63.7,99,86,66,30.10,30.02,10,4,0,0.00
2013-7-4,92.7,82.5,71.6,79.2,75.8,71.3,99,82,62,30.08,29.97,8,4,0,0.00
2013-7-5,94.8,84.1,74.8,79.3,75.7,72.6,93,78,55,30.04,29.91,10,4,0,0.00
2013-7-6,93.7,83.6,73.9,78.5,75.4,72.7,96,78,55,29.96,29.85,8,3,0,0.00
2013-7-7,94.1,85.2,74.1,78.4,75.9,73.6,99,75,59,29.89,29.79,8,2,0,0.09
2013-7-8,91.2,80.1,67.1,78.3,73.6,66.4,99,82,51,29.93,29.79,7,2,0,0.08
2013-7-9,78.3,71.9,66.0,73.5,69.6,65.7,99,93,85,29.98,29.91,5,2,0,0.01
2013-7-10,86.5,76.6,67.1,78.3,73.7,66.8,99,91,74,29.88,29.66,12,3,0,0.09
2013-7-11,85.3,77.5,71.6,78.4,74.6,71.2,99,91,80,29.76,29.65,5,2,0,0.29
2013-7-12,76.1,72.2,65.1,66.7,63.9,60.3,88,75,71,30.05,29.93,11,5,0,0.00
2013-7-13,78.8,71.5,65.5,74.6,69.8,64.3,99,95,87,30.18,30.11,3,1,0,0.14
2013-7-14,92.5,81.3,70.9,78.5,74.3,70.6,99,81,56,30.17,30.04,8,2,0,0.00
2013-7-15,93.9,83.7,70.0,79.9,74.6,69.7,99,76,56,30.06,29.96,5,2,0,0.00
2013-7-16,95.5,88.1,66.4,74.7,71.7,66.1,99,61,43,30.04,29.97,6,2,0,0.00
2013-7-17,95.5,88.0,75.4,77.5,74.1,70.1,99,66,44,30.06,29.89,8,3,0,0.00
2013-7-18,97.0,85.2,74.1,78.7,74.8,71.6,94,73,45,29.89,29.80,7,2,0,0.00
2013-7-19,97.3,85.2,73.2,79.7,76.4,72.9,99,78,49,29.83,29.60,12,4,0,0.00
2013-7-20,94.6,83.2,70.2,80.1,76.4,68.4,95,81,56,29.68,29.51,11,3,0,0.00
2013-7-21,87.1,76.7,67.8,72.2,68.2,64.8,95,77,56,29.86,29.68,5,1,0,0.00
2013-7-22,86.7,73.8,62.8,73.6,68.5,62.5,99,85,55,29.89,29.75,8,2,0,0.00
2013-7-23,88.3,73.8,69.8,79.8,72.3,68.2,99,95,73,29.74,29.40,5,2,0,1.17
2013-7-24,86.4,76.7,67.8,76.6,69.4,58.4,99,80,53,29.81,29.43,9,2,0,0.01
2013-7-25,66.9,61.1,58.6,59.8,56.6,50.7,99,85,71,29.98,29.82,6,2,0,0.67
2013-7-26,74.5,64.5,59.0,70.0,63.2,58.7,99,96,85,29.93,29.81,5,2,0,0.75
2013-7-27,85.1,70.9,55.8,70.7,64.2,55.5,99,82,52,29.95,29.85,6,2,0,0.00
2013-7-28,86.7,73.3,61.9,74.2,68.8,61.3,99,87,59,29.88,29.82,6,2,0,0.00
2013-7-29,87.1,73.8,64.4,76.3,70.1,64.1,99,89,69,29.92,29.83,9,2,0,0.00
2013-7-30,84.6,71.4,57.4,66.3,60.8,57.1,99,73,41,29.98,29.91,8,2,0,0.00
2013-7-31,84.4,72.7,57.4,67.7,62.5,57.1,99,73,45,30.03,29.91,6,2,0,0.00
2013-8-1,82.2,69.1,57.7,69.0,63.4,57.4,99,84,59,29.93,29.75,8,2,0,0.00
2013-8-2,84.7,72.2,64.0,70.2,64.7,61.7,99,80,49,29.75,29.67,10,2,0,0.20
2013-8-3,80.1,69.9,61.9,66.4,64.0,60.6,99,83,54,29.75,29.65,7,3,0,0.00
2013-8-4,82.2,68.3,55.0,61.7,57.9,54.4,99,73,43,29.78,29.63,9,2,0,0.00
2013-8-5,79.0,64.0,50.4,56.9,50.5,42.5,99,68,29,29.95,29.78,12,2,0,0.00
2013-8-6,82.8,64.4,45.0,60.0,52.1,44.7,99,70,37,30.04,29.95,5,1,0,0.00
2013-8-7,81.9,66.7,49.6,63.9,55.0,49.3,99,71,36,30.10,30.00,9,2,0,0.00
2013-8-8,81.0,73.7,64.6,73.5,70.2,61.0,96,89,77,29.97,29.89,9,3,0,0.18
2013-8-9,76.5,73.1,70.9,75.6,71.9,69.8,99,96,91,29.90,29.62,10,3,0,1.58
2013-8-10,84.7,73.9,57.4,72.6,63.3,53.5,99,73,40,29.86,29.66,9,3,0,0.00
2013-8-11,81.5,66.4,49.3,61.8,55.6,49.0,99,73,43,29.96,29.87,7,2,0,0.00
2013-8-12,83.7,70.0,56.7,65.3,60.0,55.5,99,75,41,29.92,29.79,7,2,0,0.00
2013-8-13,80.2,67.7,60.8,70.4,65.2,60.5,99,92,67,29.80,29.56,5,1,0,0.00
2013-8-14,75.7,65.8,55.2,63.2,55.9,52.2,99,73,48,29.86,29.55,11,4,0,0.00
2013-8-15,78.3,63.1,50.4,57.2,52.9,48.9,99,74,41,30.02,29.86,7,2,0,0.00
2013-8-16,81.7,65.8,50.0,61.7,55.3,49.7,99,74,37,30.08,30.00,9,2,0,0.00
2013-8-17,82.4,67.4,50.0,64.0,58.6,49.7,99,77,46,30.16,30.07,7,1,0,0.00
2013-8-18,83.3,66.8,54.5,66.1,60.2,54.2,99,82,44,30.16,29.98,6,1,0,0.00
2013-8-19,82.6,70.3,55.8,66.2,61.0,55.5,99,75,44,29.98,29.83,8,2,0,0.00
2013-8-20,89.8,73.5,58.8,66.6,62.7,58.5,99,73,40,29.97,29.85,7,1,0,0.00
2013-8-21,90.3,73.4,57.2,69.6,64.2,56.9,99,77,44,30.03,29.91,6,1,0,0.00
2013-8-22,86.0,73.6,62.4,74.0,68.7,62.1,99,86,58,29.92,29.70,9,3,0,0.00
2013-8-23,81.9,72.2,56.5,69.4,63.2,55.9,98,76,45,30.01,29.69,10,2,0,0.00
2013-8-24,80.8,63.8,49.3,56.4,51.5,45.7,99,70,33,30.24,30.02,8,2,0,0.00
2013-8-25,83.5,66.0,46.0,62.8,53.9,45.7,99,71,32,30.26,30.08,8,1,0,0.00
2013-8-26,80.4,70.7,62.6,68.8,63.4,58.0,87,78,58,30.08,29.75,9,3,0,0.00
2013-8-27,84.0,72.5,63.0,74.5,69.0,62.4,99,90,68,29.78,29.70,7,1,0,0.16
2013-8-28,86.9,72.2,59.0,71.2,65.6,58.7,99,82,50,29.85,29.73,7,2,0,0.00
2013-8-29,67.6,64.6,60.6,65.9,63.5,59.4,99,96,92,29.95,29.82,9,3,0,0.00
2013-8-30,84.4,72.3,61.2,70.7,66.8,59.8,96,84,62,29.90,29.69,7,3,0,0.00
2013-8-31,80.4,73.9,67.5,76.2,71.9,67.2,99,94,86,29.72,29.67,7,3,0,0.01
2013-9-1,81.0,72.9,68.9,78.4,72.2,68.6,99,98,92,29.76,29.67,5,1,0,0.52
2013-9-2,82.6,74.3,69.6,77.6,72.7,69.3,99,95,83,29.74,29.57,7,2,0,0.32
2013-9-3,79.7,72.0,60.8,73.4,69.7,59.9,99,93,79,29.70,29.56,7,2,0,0.03
2013-9-4,81.1,66.7,53.8,63.9,58.3,53.5,99,78,46,29.80,29.68,10,2,0,0.00
2013-9-5,72.7,61.7,47.1,64.5,56.9,46.8,99,86,50,30.04,29.75,8,1,0,0.08
2013-9-6,70.5,54.8,39.4,52.4,44.4,39.1,99,74,35,30.15,29.99,7,1,0,0.00
2013-9-7,79.7,62.7,45.3,58.2,51.6,45.0,99,71,37,29.99,29.74,9,2,0,0.00
2013-9-8,78.1,64.5,45.3,64.9,54.3,41.5,99,72,38,30.00,29.63,11,3,0,0.00
2013-9-9,69.1,55.3,38.3,52.0,45.5,38.0,99,74,40,30.16,30.01,7,2,0,0.00
2013-9-10,76.6,66.0,50.5,72.3,63.7,49.4,99,93,86,30.06,29.90,10,3,0,0.02
2013-9-11,95.4,79.9,66.7,79.9,72.9,66.4,99,82,50,29.95,29.81,10,3,0,0.00
2013-9-12,88.3,76.6,68.4,77.5,72.0,68.1,99,86,67,29.85,29.55,11,4,0,0.25
2013-9-13,80.2,69.1,58.1,70.8,65.5,55.8,99,89,64,29.64,29.43,7,1,0,0.16
2013-9-14,70.2,60.1,49.3,57.5,54.4,49.0,99,82,63,29.96,29.64,7,2,0,0.00
2013-9-15,73.0,57.4,43.9,55.5,50.0,43.6,99,80,45,30.07,29.94,7,1,0,0.00
2013-9-16,69.3,56.9,46.4,60.5,52.3,39.6,99,86,64,30.14,29.91,6,1,0,0.02
2013-9-17,64.6,49.7,34.7,48.8,40.2,34.2,99,74,39,30.33,30.15,9,2,0,0.00
2013-9-18,75.6,53.5,35.1,52.6,44.2,34.8,99,77,34,30.23,30.03,7,1,0,0.00
2013-9-19,81.0,60.0,40.5,59.6,50.4,40.2,99,76,36,30.05,29.91,5,1,0,0.00
2013-9-20,81.9,61.6,43.7,60.4,52.6,43.4,99,78,37,30.00,29.85,4,1,0,0.00
2013-9-21,76.5,64.2,48.7,66.7,60.7,48.4,99,89,63,29.93,29.60,10,4,0,0.00
2013-9-22,72.0,64.4,47.8,68.1,57.8,45.9,99,81,51,29.71,29.47,13,4,0,0.64
2013-9-23,66.0,52.9,42.3,47.7,43.7,40.6,95,73,48,29.90,29.71,9,3,0,0.00
2013-9-24,69.8,53.7,39.7,51.2,43.5,38.1,94,72,38,29.89,29.69,9,2,0,0.00
2013-9-25,70.5,54.9,39.4,53.9,48.0,39.1,99,80,54,29.86,29.75,5,1,0,0.00
2013-9-26,68.0,57.4,48.0,53.6,50.2,47.5,99,79,52,30.01,29.86,9,1,0,0.00
2013-9-27,66.7,57.0,45.9,57.1,53.1,45.5,99,88,70,30.15,30.00,8,1,0,0.00
2013-9-28,75.4,55.5,40.5,59.0,49.7,40.2,99,84,52,30.23,30.15,7,1,0,0.00
2013-9-29,70.9,52.0,41.2,57.1,46.0,40.7,99,84,39,30.17,30.01,6,1,0,0.00
2013-9-30,70.0,55.1,43.2,55.4,49.9,42.7,99,86,49,30.01,29.85,6,1,0,0.00
2013-10-1,79.2,58.0,39.2,59.6,50.0,38.9,99,80,38,29.86,29.71,4,1,0,0.00
2013-10-2,80.6,63.7,48.6,63.3,57.2,48.3,99,82,54,29.83,29.70,12,2,0,0.00
2013-10-3,78.8,60.4,45.0,58.6,50.7,44.7,99,77,33,29.98,29.83,5,1,0,0.00
2013-10-4,64.9,55.4,45.5,61.6,54.2,45.2,99,96,76,29.98,29.92,3,0,0,0.70
2013-10-5,71.4,61.9,55.6,63.5,59.2,55.3,99,92,75,30.01,29.93,5,1,0,0.03
2013-10-6,59.7,57.1,55.2,59.1,56.8,54.9,99,99,95,30.10,29.99,6,1,0,0.57
2013-10-7,77.4,65.7,56.1,72.8,64.0,55.8,99,94,83,30.00,29.69,12,4,0,0.09
2013-10-8,68.0,56.3,41.4,56.8,47.7,41.1,99,76,41,30.26,29.78,9,2,0,0.03
2013-10-9,64.6,49.2,39.0,49.7,42.9,38.7,99,82,46,30.37,30.26,11,2,0,0.00
2013-10-10,64.0,51.7,39.9,56.2,49.1,39.6,99,92,75,30.26,30.06,8,2,0,0.00
2013-10-11,75.7,57.2,47.1,60.3,52.1,46.8,99,85,59,30.05,29.97,8,1,0,0.02
2013-10-12,61.3,53.4,45.5,59.0,52.5,45.2,99,97,90,30.28,30.03,12,2,0,0.00
2013-10-13,61.2,50.9,36.3,52.8,47.2,36.0,99,88,69,30.33,30.26,9,2,0,0.00
2013-10-14,65.8,48.2,31.8,50.0,40.6,31.6,99,80,34,30.31,30.14,5,1,0,0.00
2013-10-15,68.2,55.5,44.1,56.0,50.6,43.8,99,85,62,30.16,30.06,6,1,0,0.00
2013-10-16,64.2,54.1,43.7,58.0,52.3,43.4,99,94,80,30.06,29.80,5,1,0,0.00
2013-10-17,72.7,60.2,48.6,63.5,57.3,48.3,99,91,69,29.79,29.60,7,2,0,0.01
2013-10-18,68.5,61.0,40.3,62.3,53.1,40.0,99,78,47,29.80,29.50,15,4,0,0.02
2013-10-19,67.3,54.1,34.9,51.5,43.5,34.6,99,71,39,29.87,29.63,8,2,0,0.00
2013-10-20,64.2,51.4,36.0,49.9,39.9,32.3,99,70,32,29.92,29.58,11,3,0,0.00
2013-10-21,68.9,50.1,31.8,44.3,38.8,31.6,99,71,35,30.02,29.90,7,2,0,0.00
2013-10-22,69.6,51.3,34.9,54.9,45.0,34.6,99,81,51,29.89,29.58,11,2,0,0.00
2013-10-23,53.6,43.1,31.5,42.3,35.0,31.3,99,76,47,29.69,29.47,5,0,0,0.00
2013-10-24,54.5,42.8,30.7,36.6,29.7,23.0,99,64,32,29.79,29.53,14,3,0,0.00
2013-10-25,51.6,37.2,26.1,36.3,28.4,24.2,99,74,40,30.07,29.79,10,2,0,0.00
2013-10-26,55.8,40.5,23.5,37.5,29.1,23.0,99,69,31,30.07,29.77,18,4,0,0.00
2013-10-27,57.7,46.1,31.6,40.5,34.0,28.2,95,65,40,29.97,29.71,13,3,0,0.01
2013-10-28,60.6,40.7,25.9,35.9,30.6,25.4,99,72,37,30.25,29.97,11,2,0,0.00
2013-10-29,50.5,35.4,23.9,29.3,23.2,20.8,94,65,33,30.34,30.25,7,1,0,0.00
2013-10-30,56.7,41.9,24.6,42.5,36.0,23.1,95,81,59,30.28,30.08,4,1,0,0.00
2013-10-31,62.8,51.8,28.6,60.4,50.2,28.4,99,95,89,30.12,29.79,9,3,0,0.00
2013-11-1,70.5,64.0,58.1,64.4,58.7,54.6,89,83,72,29.50,29.35,18,8,0,0.00
2013-11-2,68.9,56.8,42.1,51.0,44.4,40.0,99,67,36,29.61,29.47,7,1,0,0.00
2013-11-3,49.5,41.4,29.3,46.3,30.5,16.4,90,67,35,30.32,29.60,7,3,0,0.00
2013-11-4,45.5,31.5,19.4,20.4,16.8,12.9,92,59,29,30.62,30.38,7,2,0,0.00
2013-11-5,51.4,31.4,18.9,31.5,24.7,16.7,98,80,41,30.64,30.42,5,0,0,0.00
2013-11-6,61.7,49.1,34.9,49.8,40.6,30.9,89,74,50,30.42,29.94,14,4,0,0.00
2013-11-7,67.6,54.9,44.8,59.3,51.6,41.3,94,89,73,29.94,29.59,9,4,0,0.00
2013-11-8,49.5,41.4,30.9,33.5,26.4,21.7,72,56,44,29.97,29.72,19,6,0,0.00
2013-11-9,45.3,35.4,25.3,29.7,25.1,21.3,86,68,40,30.12,29.95,9,1,0,0.00
2013-11-10,56.3,44.6,39.6,45.5,36.2,31.7,99,73,52,29.88,29.67,7,3,0,0.00
2013-11-11,52.3,46.3,37.4,32.8,28.6,24.7,66,51,35,30.00,29.80,10,4,0,0.00
2013-11-12,49.3,35.6,22.3,38.5,25.5,15.3,91,67,53,30.10,29.79,15,4,0,0.10
2013-11-13,37.4,27.5,20.3,17.3,14.7,10.7,81,60,37,30.19,30.09,11,3,0,0.00
2013-11-14,52.2,38.3,27.1,23.7,20.2,15.8,64,49,31,30.08,29.94,9,3,0,0.00
2013-11-15,63.0,45.5,26.6,30.4,20.4,14.5,73,40,16,30.10,30.00,10,3,0,0.00
2013-11-16,61.3,44.2,27.9,36.8,27.3,22.1,86,57,23,30.23,30.13,4,1,0,0.00
2013-11-17,61.2,46.2,27.3,56.4,43.2,24.4,99,90,65,30.23,29.73,4,1,0,0.06
2013-11-18,66.9,58.3,46.8,63.0,48.5,31.9,99,73,40,29.71,29.41,16,4,0,0.38
2013-11-19,48.2,40.1,30.7,31.9,22.5,16.2,58,50,37,30.19,29.54,18,6,0,0.00
2013-11-20,43.0,29.9,16.5,16.2,14.2,10.6,84,54,27,30.54,30.19,11,2,0,0.00
2013-11-21,48.2,31.5,14.5,29.9,20.2,11.8,92,66,35,30.56,30.30,8,1,0,0.00
2013-11-22,48.6,43.3,37.4,48.1,41.5,30.5,99,93,76,30.28,29.71,4,0,0,0.17
2013-11-23,47.5,40.8,29.3,47.0,27.0,14.9,99,60,33,29.81,29.68,22,6,0,0.00
2013-11-24,29.1,24.2,19.9,18.1,5.0,-7.6,73,45,21,30.10,29.71,20,10,0,0.01
2013-11-25,33.3,23.3,15.1,10.8,1.4,-4.8,49,39,20,30.28,30.12,14,4,0,0.00
2013-11-26,42.1,36.9,30.6,36.0,25.6,16.9,99,67,39,30.23,29.92,6,2,0,0.15
2013-11-27,61.3,51.1,36.1,61.0,50.5,35.2,99,98,91,29.91,29.09,18,6,0,2.02
2013-11-28,37.0,29.4,21.9,32.6,17.4,6.7,84,62,36,30.34,29.44,16,6,0,0.01
2013-11-29,36.3,26.0,16.0,16.5,11.6,2.5,78,55,36,30.66,30.36,10,2,0,0.00
2013-11-30,34.3,22.7,9.9,22.0,13.3,5.9,86,68,48,30.71,30.35,5,1,0,0.00
2013-12-1,37.6,34.0,27.9,36.0,32.3,21.9,99,94,78,30.32,29.91,4,1,0,0.15
2013-12-2,41.2,37.5,35.6,39.9,37.1,35.3,99,98,95,29.91,29.82,4,1,0,0.00
2013-12-3,50.2,37.5,28.2,39.7,34.6,28.0,99,91,60,29.85,29.74,6,1,0,0.00
2013-12-4,46.8,32.9,24.6,32.7,28.3,24.4,99,85,51,30.11,29.86,6,1,0,0.01
2013-12-5,55.6,41.5,27.3,55.3,40.0,27.1,99,95,84,30.12,29.79,9,1,0,0.00
2013-12-6,57.0,49.5,34.7,56.4,47.4,34.2,99,92,74,30.02,29.75,7,3,0,0.38
2013-12-7,41.2,32.3,22.5,34.0,28.7,21.5,99,88,63,30.38,29.97,11,2,0,0.21
2013-12-8,33.1,27.1,18.0,23.1,18.1,15.3,96,70,50,30.50,30.37,5,1,0,0.00
2013-12-9,37.4,31.9,25.9,37.1,30.4,16.9,99,95,62,30.40,29.76,5,1,0,0.41
2013-12-10,33.6,29.1,21.0,33.1,28.7,19.8,99,98,93,29.91,29.68,4,1,0,0.00
2013-12-11,32.2,23.4,18.0,23.5,19.6,16.5,98,86,69,30.13,29.91,8,3,0,0.00
2013-12-12,27.1,18.1,5.4,17.7,8.3,2.2,90,68,38,30.18,29.99,10,2,0,0.00
2013-12-13,31.3,21.5,5.9,18.0,11.6,3.4,90,66,48,30.29,29.91,13,4,0,0.00
2013-12-14,26.6,14.9,10.8,26.4,6.2,-2.2,99,69,44,30.50,30.03,6,2,0,0.00
2013-12-15,35.1,27.1,19.6,34.8,26.3,18.8,99,97,91,30.02,29.32,14,4,0,1.06
2013-12-16,30.0,21.6,7.9,21.8,12.2,5.0,99,70,39,30.11,29.65,13,3,0,0.00
2013-12-17,18.5,9.4,-5.1,16.1,6.1,-8.7,90,86,73,30.18,29.85,8,2,0,0.00
2013-12-18,35.8,24.6,15.6,24.9,18.9,12.9,92,80,55,29.99,29.78,9,3,0,0.09
2013-12-19,45.0,31.9,20.5,27.0,23.4,17.3,88,72,45,30.03,29.85,12,3,0,0.19
2013-12-20,56.5,40.6,27.1,38.7,31.9,25.4,97,74,43,30.03,29.81,10,2,0,0.03
2013-12-21,60.1,49.5,40.5,49.9,43.8,34.4,95,81,69,29.87,29.76,9,4,0,0.00
2013-12-22,67.3,50.6,36.3,63.0,48.5,36.0,99,93,76,29.92,29.67,11,4,0,0.00
2013-12-23,37.4,34.7,32.7,37.1,34.4,32.5,99,99,99,29.98,29.85,5,1,0,0.88
2013-12-24,37.8,32.3,26.1,37.5,25.0,14.4,99,76,49,30.11,29.93,9,2,0,0.00
2013-12-25,25.9,18.6,10.8,13.2,6.0,1.4,88,59,39,30.44,30.11,11,3,0,0.00
2013-12-26,33.4,24.4,11.1,29.2,20.5,8.0,95,85,77,30.41,29.97,6,1,0,0.00
2013-12-27,35.1,25.6,17.2,23.3,19.7,16.0,98,80,56,30.19,30.10,14,2,0,0.03
2013-12-28,47.5,32.4,20.3,29.2,24.1,17.8,93,74,44,30.13,29.90,12,3,0,0.00
2013-12-29,42.3,37.0,26.6,39.3,35.8,26.4,99,96,72,29.91,29.26,11,2,0,1.35
2013-12-30,40.8,32.3,17.4,37.6,24.1,10.0,99,75,39,30.06,29.41,17,4,0,0.00
2013-12-31,26.4,18.7,12.2,14.3,7.4,-0.7,81,62,45,30.09,29.90,9,2,0,0.00
2014-1-1,28.6,20.2,11.5,14.1,8.4,5.0,84,61,42,30.28,30.10,10,2,0,0.00
2014-1-2,20.1,12.3,1.0,16.2,8.9,-2.4,88,86,74,30.26,29.73,9,3,0,0.00